createdAt,value
2017-06-13T00:00:28.368Z,18.60
2017-06-13T00:02:56.456Z,18.50
2017-06-13T00:05:24.495Z,18.40
2017-06-13T00:07:52.580Z,18.40
2017-06-13T00:10:20.634Z,18.40
2017-06-13T00:12:48.707Z,18.30
2017-06-13T00:15:16.783Z,18.20
2017-06-13T00:17:44.872Z,18.20
2017-06-13T00:20:12.967Z,18.10
2017-06-13T00:22:41.047Z,18.30
2017-06-13T00:25:09.091Z,18.30
2017-06-13T00:27:37.158Z,18.30
2017-06-13T00:30:05.215Z,18.30
2017-06-13T00:32:33.302Z,18.30
2017-06-13T00:35:01.359Z,18.50
2017-06-13T00:37:30.186Z,18.40
2017-06-13T00:39:58.262Z,18.40
2017-06-13T00:42:26.324Z,18.50
2017-06-13T00:44:54.403Z,18.50
2017-06-13T00:47:22.447Z,18.40
2017-06-13T00:49:51.276Z,18.30
2017-06-13T00:52:19.347Z,18.30
2017-06-13T00:54:47.407Z,18.40
2017-06-13T00:57:15.474Z,18.30
2017-06-13T00:59:43.539Z,18.30
2017-06-13T01:02:11.591Z,18.40
2017-06-13T01:04:39.683Z,18.50
2017-06-13T01:07:07.750Z,18.40
2017-06-13T01:09:35.824Z,18.40
2017-06-13T01:12:03.925Z,18.30
2017-06-13T01:14:31.966Z,18.50
2017-06-13T01:17:00.014Z,18.50
2017-06-13T01:19:28.858Z,18.50
2017-06-13T01:21:57.351Z,18.50
2017-06-13T01:24:25.391Z,18.50
2017-06-13T01:26:53.452Z,18.70
2017-06-13T01:29:21.516Z,18.70
2017-06-13T01:31:49.594Z,18.50
2017-06-13T01:34:17.639Z,18.40
2017-06-13T01:36:45.731Z,18.40
2017-06-13T01:39:13.787Z,18.20
2017-06-13T01:41:41.831Z,18.10
2017-06-13T01:44:10.666Z,17.90
2017-06-13T01:46:38.765Z,17.90
2017-06-13T01:49:06.827Z,17.80
2017-06-13T01:51:34.902Z,17.60
2017-06-13T01:54:02.985Z,17.60
2017-06-13T01:56:31.010Z,17.50
2017-06-13T01:58:59.124Z,17.60
2017-06-13T02:01:27.191Z,17.60
2017-06-13T02:03:55.263Z,17.60
2017-06-13T02:06:23.326Z,17.70
2017-06-13T02:08:51.407Z,17.80
2017-06-13T02:11:19.478Z,17.70
2017-06-13T02:13:47.553Z,17.80
2017-06-13T02:16:15.614Z,17.80
2017-06-13T02:18:43.686Z,17.90
2017-06-13T02:21:11.730Z,17.90
2017-06-13T02:23:40.144Z,17.80
2017-06-13T02:26:08.177Z,17.90
2017-06-13T02:28:36.247Z,17.90
2017-06-13T02:31:04.327Z,17.90
2017-06-13T02:33:32.472Z,18.00
2017-06-13T02:36:01.363Z,18.00
2017-06-13T02:38:30.163Z,18.00
2017-06-13T02:40:58.240Z,17.90
2017-06-13T02:43:26.336Z,18.10
2017-06-13T02:45:54.425Z,18.20
2017-06-13T02:48:22.473Z,18.10
2017-06-13T02:50:50.563Z,18.00
2017-06-13T02:53:18.607Z,18.00
2017-06-13T02:55:46.671Z,18.10
2017-06-13T02:58:14.743Z,18.10
2017-06-13T03:00:42.803Z,18.20
2017-06-13T03:03:10.887Z,18.20
2017-06-13T03:05:38.963Z,18.30
2017-06-13T03:08:07.034Z,18.30
2017-06-13T03:10:35.103Z,18.40
2017-06-13T03:13:03.175Z,18.40
2017-06-13T03:15:31.255Z,18.40
2017-06-13T03:17:59.328Z,18.30
2017-06-13T03:20:27.371Z,18.30
2017-06-13T03:22:55.428Z,18.40
2017-06-13T03:25:23.499Z,18.50
2017-06-13T03:27:51.588Z,18.50
2017-06-13T03:30:19.669Z,18.50
2017-06-13T03:32:47.738Z,18.40
2017-06-13T03:35:15.801Z,18.20
2017-06-13T03:37:45.365Z,18.20
2017-06-13T03:40:13.395Z,18.20
2017-06-13T03:42:42.227Z,18.30
2017-06-13T03:45:10.314Z,18.30
2017-06-13T03:47:38.454Z,18.30
2017-06-13T03:50:07.248Z,18.10
2017-06-13T03:52:35.327Z,18.10
2017-06-13T03:55:03.403Z,18.10
2017-06-13T03:57:31.473Z,18.10
2017-06-13T03:59:59.526Z,17.90
2017-06-13T04:02:27.663Z,18.00
2017-06-13T04:04:55.716Z,18.00
2017-06-13T04:07:23.805Z,17.70
2017-06-13T04:09:52.675Z,17.70
2017-06-13T04:12:20.731Z,17.70
2017-06-13T04:14:48.846Z,17.60
2017-06-13T04:17:17.683Z,17.40
2017-06-13T04:19:45.736Z,17.30
2017-06-13T04:22:13.803Z,17.40
2017-06-13T04:24:41.866Z,17.40
2017-06-13T04:27:09.967Z,17.30
2017-06-13T04:29:38.027Z,17.40
2017-06-13T04:32:06.086Z,17.40
2017-06-13T04:34:34.187Z,17.60
2017-06-13T04:37:02.260Z,17.80
2017-06-13T04:39:30.306Z,17.80
2017-06-13T04:41:59.155Z,18.20
2017-06-13T04:44:27.226Z,18.10
2017-06-13T04:46:55.308Z,18.30
2017-06-13T04:49:23.386Z,18.50
2017-06-13T04:51:51.451Z,18.70
2017-06-13T04:54:19.532Z,19.00
2017-06-13T04:56:47.614Z,19.00
2017-06-13T04:59:15.648Z,18.80
2017-06-13T05:01:43.722Z,18.90
2017-06-13T05:04:11.779Z,18.80
2017-06-13T05:06:39.858Z,18.70
2017-06-13T05:09:07.918Z,18.70
2017-06-13T05:11:35.978Z,18.50
2017-06-13T05:14:04.063Z,18.40
2017-06-13T05:16:32.119Z,18.40
2017-06-13T05:19:00.767Z,18.20
2017-06-13T05:21:28.830Z,18.20
2017-06-13T05:23:56.908Z,18.20
2017-06-13T05:26:25.763Z,18.20
2017-06-13T05:28:53.817Z,18.20
2017-06-13T05:31:21.891Z,18.40
2017-06-13T05:33:49.959Z,18.40
2017-06-13T05:36:18.024Z,18.60
2017-06-13T05:38:46.091Z,18.80
2017-06-13T05:41:14.179Z,18.80
2017-06-13T05:43:43.010Z,18.30
2017-06-13T05:46:11.078Z,18.30
2017-06-13T05:48:39.138Z,18.30
2017-06-13T05:51:07.209Z,18.30
2017-06-13T05:53:35.293Z,18.40
2017-06-13T05:56:03.355Z,18.20
2017-06-13T05:58:31.443Z,18.30
2017-06-13T06:00:59.580Z,18.50
2017-06-13T06:03:28.484Z,18.30
2017-06-13T06:05:57.322Z,18.30
2017-06-13T06:08:25.381Z,18.30
2017-06-13T06:10:53.434Z,18.40
2017-06-13T06:13:21.519Z,18.60
2017-06-13T06:15:49.574Z,18.60
2017-06-13T06:18:17.660Z,18.80
2017-06-13T06:20:45.711Z,19.00
2017-06-13T06:23:13.783Z,19.20
2017-06-13T06:25:41.856Z,19.40
2017-06-13T06:28:09.951Z,19.30
2017-06-13T06:30:38.034Z,19.10
2017-06-13T06:33:06.086Z,18.70
2017-06-13T06:35:34.151Z,18.70
2017-06-13T06:38:02.234Z,18.70
2017-06-13T06:40:30.300Z,18.70
2017-06-13T06:42:58.387Z,18.70
2017-06-13T06:45:26.486Z,18.70
2017-06-13T06:47:55.326Z,18.70
2017-06-13T06:50:23.398Z,18.60
2017-06-13T06:52:51.469Z,18.80
2017-06-13T06:55:21.214Z,19.30
2017-06-13T06:57:49.258Z,19.30
2017-06-13T07:00:17.328Z,19.50
2017-06-13T07:02:45.418Z,19.80
2017-06-13T07:05:13.491Z,20.20
2017-06-13T07:07:41.547Z,20.30
2017-06-13T07:10:09.643Z,20.20
2017-06-13T07:12:37.708Z,19.80
2017-06-13T07:15:05.790Z,19.50
2017-06-13T07:17:34.635Z,19.50
2017-06-13T07:20:02.691Z,19.40
2017-06-13T07:22:30.771Z,19.50
2017-06-13T07:24:58.843Z,19.60
2017-06-13T07:27:26.932Z,19.80
2017-06-13T07:29:55.004Z,19.60
2017-06-13T07:32:23.071Z,19.60
2017-06-13T07:34:51.146Z,20.20
2017-06-13T07:37:19.199Z,20.80
2017-06-13T07:39:47.259Z,20.70
2017-06-13T07:42:15.343Z,20.50
2017-06-13T07:44:43.425Z,20.20
2017-06-13T07:47:11.490Z,20.10
2017-06-13T07:49:39.567Z,20.10
2017-06-13T07:52:07.638Z,19.90
2017-06-13T07:54:35.723Z,19.90
2017-06-13T07:57:03.787Z,20.00
2017-06-13T07:59:31.888Z,20.00
2017-06-13T08:02:00.790Z,20.40
2017-06-13T08:04:28.879Z,20.40
2017-06-13T08:06:56.960Z,21.00
2017-06-13T08:09:25.019Z,21.40
2017-06-13T08:11:53.105Z,21.80
2017-06-13T08:14:21.174Z,22.10
2017-06-13T08:16:49.255Z,21.80
2017-06-13T08:19:17.319Z,21.50
2017-06-13T08:21:45.415Z,21.30
2017-06-13T08:24:13.457Z,21.30
2017-06-13T08:26:41.523Z,21.50
2017-06-13T08:29:09.603Z,21.90
2017-06-13T08:31:39.676Z,21.90
2017-06-13T08:34:07.729Z,21.80
2017-06-13T08:36:35.809Z,22.10
2017-06-13T08:39:03.886Z,22.20
2017-06-13T08:41:31.971Z,22.20
2017-06-13T08:44:00.033Z,22.40
2017-06-13T08:46:28.116Z,22.70
2017-06-13T08:48:56.218Z,22.70
2017-06-13T08:51:24.254Z,22.30
2017-06-13T08:53:52.339Z,21.90
2017-06-13T08:56:20.425Z,21.40
2017-06-13T08:58:48.481Z,21.10
2017-06-13T09:01:16.585Z,20.90
2017-06-13T09:03:44.659Z,21.00
2017-06-13T09:06:12.758Z,21.20
2017-06-13T09:08:41.631Z,22.00
2017-06-13T09:11:09.698Z,21.90
2017-06-13T09:13:37.762Z,21.60
2017-06-13T09:16:05.844Z,21.30
2017-06-13T09:18:34.682Z,21.40
2017-06-13T09:21:02.766Z,21.30
2017-06-13T09:23:30.828Z,21.30
2017-06-13T09:25:58.922Z,21.20
2017-06-13T09:28:27.006Z,20.90
2017-06-13T09:30:55.063Z,20.90
2017-06-13T09:33:23.119Z,21.30
2017-06-13T09:35:51.198Z,21.90
2017-06-13T09:38:19.277Z,22.40
2017-06-13T09:40:47.356Z,22.70
2017-06-13T09:43:15.431Z,22.20
2017-06-13T09:45:43.493Z,22.20
2017-06-13T09:48:11.557Z,21.90
2017-06-13T09:50:39.651Z,21.50
2017-06-13T09:53:07.714Z,21.50
2017-06-13T09:55:35.816Z,21.50
2017-06-13T09:58:04.630Z,21.10
2017-06-13T10:00:32.713Z,21.00
2017-06-13T10:03:00.788Z,21.10
2017-06-13T10:05:28.854Z,21.10
2017-06-13T10:07:56.959Z,21.00
2017-06-13T10:10:25.018Z,21.00
2017-06-13T10:12:53.079Z,20.70
2017-06-13T10:15:21.161Z,20.70
2017-06-13T10:17:49.243Z,20.60
2017-06-13T10:20:17.300Z,20.50
2017-06-13T10:22:45.404Z,20.40
2017-06-13T10:25:13.451Z,20.50
2017-06-13T10:27:41.530Z,20.60
2017-06-13T10:30:09.618Z,20.60
2017-06-13T10:32:38.463Z,21.10
2017-06-13T10:35:06.528Z,21.00
2017-06-13T10:37:34.586Z,21.40
2017-06-13T10:40:02.654Z,22.00
2017-06-13T10:42:31.529Z,23.50
2017-06-13T10:45:00.347Z,23.80
2017-06-13T10:47:28.430Z,23.80
2017-06-13T10:49:56.705Z,24.00
2017-06-13T10:52:24.757Z,23.80
2017-06-13T10:54:52.839Z,23.80
2017-06-13T10:57:20.916Z,23.70
2017-06-13T10:59:48.996Z,23.60
2017-06-13T11:02:17.068Z,23.40
2017-06-13T11:04:45.147Z,23.40
2017-06-13T11:07:13.225Z,23.60
2017-06-13T11:09:41.284Z,23.70
2017-06-13T11:12:09.327Z,23.70
2017-06-13T11:14:37.565Z,23.60
2017-06-13T11:17:05.626Z,23.40
2017-06-13T11:19:33.698Z,23.60
2017-06-13T11:22:01.816Z,23.90
2017-06-13T11:24:30.621Z,24.40
2017-06-13T11:26:58.756Z,24.30
2017-06-13T11:29:27.619Z,24.60
2017-06-13T11:31:55.698Z,24.60
2017-06-13T11:34:23.791Z,24.60
2017-06-13T11:36:52.622Z,24.60
2017-06-13T11:39:20.696Z,24.60
2017-06-13T11:41:49.310Z,24.90
2017-06-13T11:44:17.367Z,25.20
2017-06-13T11:46:45.439Z,25.20
2017-06-13T11:49:13.512Z,25.50
2017-06-13T11:51:41.575Z,25.80
2017-06-13T11:54:09.646Z,25.60
2017-06-13T11:56:37.744Z,25.30
2017-06-13T11:59:05.811Z,25.30
2017-06-13T12:01:33.881Z,25.20
2017-06-13T12:04:01.939Z,25.00
2017-06-13T12:06:30.049Z,24.80
2017-06-13T12:08:58.136Z,24.30
2017-06-13T12:11:26.959Z,24.10
2017-06-13T12:13:55.032Z,24.00
2017-06-13T12:16:23.102Z,24.10
2017-06-13T12:18:51.170Z,24.10
2017-06-13T12:21:31.923Z,23.90
2017-06-13T12:24:00.716Z,23.30
2017-06-13T12:26:28.766Z,23.30
2017-06-13T12:28:56.852Z,23.30
2017-06-13T12:31:24.930Z,23.20
2017-06-13T12:33:52.973Z,23.20
2017-06-13T12:36:21.806Z,23.30
2017-06-13T12:38:49.886Z,23.20
2017-06-13T12:41:17.964Z,22.80
2017-06-13T12:43:47.539Z,22.70
2017-06-13T12:46:15.606Z,22.80
2017-06-13T12:48:43.686Z,22.90
2017-06-13T12:51:11.741Z,23.10
2017-06-13T12:53:41.207Z,23.80
2017-06-13T12:56:09.248Z,23.70
2017-06-13T12:58:37.330Z,23.40
2017-06-13T13:01:05.403Z,23.50
2017-06-13T13:03:33.468Z,23.90
2017-06-13T13:06:01.524Z,24.00
2017-06-13T13:08:29.611Z,24.20
2017-06-13T13:10:57.707Z,24.30
2017-06-13T13:13:25.798Z,24.40
2017-06-13T13:15:53.847Z,24.40
2017-06-13T13:18:21.916Z,24.40
2017-06-13T13:20:50.000Z,24.40
2017-06-13T13:23:18.055Z,24.60
2017-06-13T13:25:46.143Z,25.00
2017-06-13T13:28:14.202Z,25.20
2017-06-13T13:30:42.258Z,25.50
2017-06-13T13:33:10.360Z,25.50
2017-06-13T13:35:38.432Z,24.90
2017-06-13T13:38:06.495Z,24.70
2017-06-13T13:40:35.199Z,24.70
2017-06-13T13:43:04.747Z,25.10
2017-06-13T13:45:32.812Z,25.00
2017-06-13T13:48:00.877Z,25.10
2017-06-13T13:50:28.930Z,25.00
2017-06-13T13:52:57.004Z,24.60
2017-06-13T13:55:25.075Z,24.90
2017-06-13T13:57:53.148Z,24.90
2017-06-13T14:00:21.242Z,24.90
2017-06-13T14:02:49.328Z,24.70
2017-06-13T14:05:17.404Z,23.90
2017-06-13T14:07:45.808Z,23.80
2017-06-13T14:10:14.697Z,24.90
2017-06-13T14:12:43.572Z,25.10
2017-06-13T14:15:11.645Z,25.10
2017-06-13T14:17:39.720Z,25.50
2017-06-13T14:20:07.830Z,25.80
2017-06-13T14:22:35.923Z,26.00
2017-06-13T14:25:04.021Z,26.20
2017-06-13T14:27:32.096Z,26.50
2017-06-13T14:30:00.235Z,26.30
2017-06-13T14:32:28.341Z,26.20
2017-06-13T14:34:56.389Z,26.10
2017-06-13T14:37:25.175Z,25.60
2017-06-13T14:39:53.250Z,25.00
2017-06-13T14:42:21.315Z,24.70
2017-06-13T14:44:49.375Z,24.70
2017-06-13T14:47:17.440Z,25.00
2017-06-13T14:49:45.526Z,25.20
2017-06-13T14:52:13.595Z,25.40
2017-06-13T14:54:41.676Z,25.60
2017-06-13T14:57:09.746Z,25.80
2017-06-13T14:59:37.807Z,26.00
2017-06-13T15:02:05.911Z,25.60
2017-06-13T15:04:34.013Z,25.40
2017-06-13T15:07:02.075Z,25.20
2017-06-13T15:09:30.919Z,24.60
2017-06-13T15:11:58.982Z,24.60
2017-06-13T15:14:27.050Z,24.30
2017-06-13T15:16:55.784Z,24.10
2017-06-13T15:19:23.866Z,24.30
2017-06-13T15:21:52.687Z,24.20
2017-06-13T15:24:21.686Z,24.10
2017-06-13T15:26:49.762Z,24.40
2017-06-13T15:29:17.834Z,24.60
2017-06-13T15:31:45.899Z,24.90
2017-06-13T15:34:13.975Z,24.90
2017-06-13T15:36:42.040Z,24.90
2017-06-13T15:39:10.206Z,24.80
2017-06-13T15:41:38.250Z,24.60
2017-06-13T15:44:07.084Z,24.80
2017-06-13T15:46:35.926Z,25.10
2017-06-13T15:49:04.599Z,25.00
2017-06-13T15:51:32.663Z,25.10
2017-06-13T15:54:00.739Z,24.90
2017-06-13T15:56:28.799Z,24.60
2017-06-13T15:58:56.876Z,24.30
2017-06-13T16:01:24.942Z,24.30
2017-06-13T16:03:53.020Z,24.40
2017-06-13T16:06:21.080Z,24.20
2017-06-13T16:08:49.342Z,24.30
2017-06-13T16:11:17.431Z,24.40
2017-06-13T16:13:45.564Z,24.30
2017-06-13T16:16:13.602Z,24.30
2017-06-13T16:18:41.694Z,24.10
2017-06-13T16:21:09.727Z,24.10
2017-06-13T16:23:37.825Z,24.20
2017-06-13T16:26:05.903Z,24.20
2017-06-13T16:28:33.965Z,24.20
2017-06-13T16:31:02.062Z,24.10
2017-06-13T16:33:30.987Z,23.90
2017-06-13T16:35:59.069Z,23.90
2017-06-13T16:38:27.175Z,23.90
2017-06-13T16:40:55.251Z,23.80
2017-06-13T16:43:23.375Z,23.80
2017-06-13T16:45:51.453Z,23.90
2017-06-13T16:48:19.515Z,23.70
2017-06-13T16:50:47.624Z,23.50
2017-06-13T16:53:15.720Z,23.70
2017-06-13T16:55:43.791Z,23.80
2017-06-13T16:58:11.904Z,23.90
2017-06-13T17:00:39.983Z,24.00
2017-06-13T17:03:08.064Z,24.10
2017-06-13T17:05:36.396Z,24.10
2017-06-13T17:08:04.527Z,24.10
2017-06-13T17:10:32.611Z,24.00
2017-06-13T17:13:00.707Z,24.00
2017-06-13T17:15:30.307Z,23.80
2017-06-13T17:17:59.152Z,23.70
2017-06-13T17:20:27.309Z,23.60
2017-06-13T17:22:55.378Z,23.60
2017-06-13T17:25:23.481Z,23.60
2017-06-13T17:27:51.555Z,23.50
2017-06-13T17:30:19.661Z,23.50
2017-06-13T17:32:47.815Z,23.50
2017-06-13T17:35:15.882Z,23.40
2017-06-13T17:37:43.947Z,23.40
2017-06-13T17:40:12.159Z,23.40
2017-06-13T17:42:40.228Z,23.40
2017-06-13T17:45:09.040Z,23.30
2017-06-13T17:47:37.897Z,23.30
2017-06-13T17:50:06.592Z,23.30
2017-06-13T17:52:34.676Z,23.30
2017-06-13T17:55:02.739Z,23.30
2017-06-13T17:57:30.795Z,23.30
2017-06-13T17:59:58.903Z,23.30
2017-06-13T18:02:26.965Z,23.30
2017-06-13T18:04:55.067Z,23.30
2017-06-13T18:07:23.891Z,23.30
2017-06-13T18:09:51.962Z,23.30
2017-06-13T18:12:20.029Z,23.30
2017-06-13T18:14:48.115Z,23.30
2017-06-13T18:17:16.198Z,23.10
2017-06-13T18:19:44.327Z,23.10
2017-06-13T18:22:13.345Z,23.00
2017-06-13T18:24:41.398Z,23.00
2017-06-13T18:27:09.511Z,22.90
2017-06-13T18:29:37.606Z,22.90
2017-06-13T18:32:05.663Z,22.80
2017-06-13T18:34:34.564Z,22.90
2017-06-13T18:37:03.414Z,22.80
2017-06-13T18:39:31.485Z,22.80
2017-06-13T18:41:59.542Z,22.80
2017-06-13T18:44:27.607Z,22.80
2017-06-13T18:46:55.665Z,22.80
2017-06-13T18:49:23.739Z,22.80
2017-06-13T18:51:51.806Z,22.90
2017-06-13T18:54:19.924Z,22.80
2017-06-13T18:56:47.988Z,22.80
2017-06-13T18:59:16.076Z,22.70
2017-06-13T19:01:44.144Z,22.70
2017-06-13T19:04:12.203Z,22.70
2017-06-13T19:06:40.282Z,22.70
2017-06-13T19:09:08.377Z,22.60
2017-06-13T19:11:36.539Z,22.60
2017-06-13T19:14:04.885Z,22.50
2017-06-13T19:16:32.931Z,22.50
2017-06-13T19:19:01.119Z,22.40
2017-06-13T19:21:30.038Z,22.30
2017-06-13T19:23:58.853Z,22.20
2017-06-13T19:26:26.958Z,22.20
2017-06-13T19:28:55.027Z,22.20
2017-06-13T19:31:23.098Z,22.10
2017-06-13T19:33:51.191Z,22.00
2017-06-13T19:36:20.035Z,22.00
2017-06-13T19:38:48.109Z,21.90
2017-06-13T19:41:16.167Z,21.90
2017-06-13T19:43:44.262Z,21.80
2017-06-13T19:46:12.327Z,21.70
2017-06-13T19:48:41.148Z,21.60
2017-06-13T19:51:09.227Z,21.50
2017-06-13T19:53:37.280Z,21.50
2017-06-13T19:56:05.363Z,21.40
2017-06-13T19:58:33.442Z,21.40
2017-06-13T20:01:01.502Z,21.30
2017-06-13T20:03:29.611Z,21.20
2017-06-13T20:05:57.666Z,21.10
2017-06-13T20:08:25.798Z,21.10
2017-06-13T20:10:54.624Z,20.90
2017-06-13T20:13:22.689Z,20.80
2017-06-13T20:15:50.756Z,20.70
2017-06-13T20:18:18.831Z,20.60
2017-06-13T20:20:46.886Z,20.50
2017-06-13T20:23:14.996Z,20.40
2017-06-13T20:25:48.867Z,20.40
2017-06-13T20:28:16.961Z,20.30
2017-06-13T20:30:45.009Z,20.20
2017-06-13T20:33:13.141Z,20.10
2017-06-13T20:35:41.268Z,20.10
2017-06-13T20:38:09.331Z,20.00
2017-06-13T20:40:37.405Z,19.90
2017-06-13T20:43:05.685Z,19.80
2017-06-13T20:45:33.784Z,19.80
2017-06-13T20:48:01.912Z,19.70
2017-06-13T20:50:29.956Z,19.70
2017-06-13T20:52:58.022Z,19.60
2017-06-13T20:55:26.167Z,19.60
2017-06-13T20:57:54.212Z,19.50
2017-06-13T21:00:23.063Z,19.40
2017-06-13T21:02:51.123Z,19.40
2017-06-13T21:05:19.188Z,19.40
2017-06-13T21:07:47.255Z,19.30
2017-06-13T21:10:15.316Z,19.20
2017-06-13T21:12:43.385Z,19.20
2017-06-13T21:15:11.495Z,19.10
2017-06-13T21:17:39.537Z,19.10
2017-06-13T21:20:07.591Z,19.10
2017-06-13T21:22:35.691Z,19.10
2017-06-13T21:25:03.758Z,19.00
2017-06-13T21:27:31.896Z,18.90
2017-06-13T21:30:00.707Z,18.80
2017-06-13T21:32:28.763Z,18.80
2017-06-13T21:34:56.861Z,18.80
2017-06-13T21:37:24.903Z,18.80
2017-06-13T21:39:52.979Z,18.80
2017-06-13T21:42:21.061Z,18.80
2017-06-13T21:44:49.116Z,18.80
2017-06-13T21:47:17.206Z,18.90
2017-06-13T21:49:45.254Z,18.90
2017-06-13T21:52:13.287Z,18.90
2017-06-13T21:54:41.367Z,18.90
2017-06-13T21:57:09.452Z,18.90
2017-06-13T21:59:37.520Z,18.90
2017-06-13T22:02:05.571Z,18.80
2017-06-13T22:04:33.646Z,18.80
2017-06-13T22:07:01.710Z,18.70
2017-06-13T22:09:29.792Z,18.70
2017-06-13T22:11:57.850Z,18.60
2017-06-13T22:14:25.907Z,18.50
2017-06-13T22:16:53.987Z,18.40
2017-06-13T22:19:22.030Z,18.40
2017-06-13T22:21:50.895Z,18.30
2017-06-13T22:24:18.958Z,18.30
2017-06-13T22:26:47.010Z,18.30
2017-06-13T22:29:15.107Z,18.30
2017-06-13T22:31:43.159Z,18.30
2017-06-13T22:34:11.254Z,18.20
2017-06-13T22:36:39.302Z,18.20
2017-06-13T22:39:07.352Z,18.20
2017-06-13T22:41:35.666Z,18.10
2017-06-13T22:44:03.779Z,18.00
2017-06-13T22:46:32.692Z,17.90
2017-06-13T22:49:01.495Z,17.90
2017-06-13T22:51:29.546Z,17.80
2017-06-13T22:53:57.607Z,17.80
2017-06-13T22:56:25.670Z,17.80
2017-06-13T22:58:53.743Z,17.80
2017-06-13T23:01:21.816Z,17.80
2017-06-13T23:03:49.892Z,17.80
2017-06-13T23:06:17.947Z,17.80
2017-06-13T23:08:46.018Z,17.70
2017-06-13T23:11:14.063Z,17.70
2017-06-13T23:13:42.884Z,17.60
2017-06-13T23:16:10.958Z,17.50
2017-06-13T23:18:39.026Z,17.60
2017-06-13T23:21:07.198Z,17.60
2017-06-13T23:23:36.003Z,17.60
2017-06-13T23:26:04.079Z,17.60
2017-06-13T23:28:32.162Z,17.70
2017-06-13T23:31:00.231Z,17.70
2017-06-13T23:33:28.298Z,17.70
2017-06-13T23:35:56.445Z,17.70
2017-06-13T23:38:25.236Z,17.60
2017-06-13T23:40:53.286Z,17.60
2017-06-13T23:43:22.147Z,17.50
2017-06-13T23:45:50.214Z,17.50
2017-06-13T23:48:18.264Z,17.50
2017-06-13T23:50:46.331Z,17.40
2017-06-13T23:53:14.391Z,17.40
2017-06-13T23:55:42.466Z,17.30
2017-06-13T23:58:10.510Z,17.30
